Time;durP1;ratioP1;P1;durP2;ratioP2;P2;SDS_P1;SDS_P2;PMS_P1;PMS_P2;Temp;Humidity;BMP_temperature;BMP_pressure;BME280_temperature;BME280_humidity;BME280_pressure;Samples;Min_cycle;Max_cycle;Signal;HPM_P1;HPM_P2
2021/12/27 00:01:15;;;;;;;17.27;14.23;;;8.00;99.90;;;;;;5071355;28;20455;-85
2021/12/27 00:03:42;;;;;;;15.23;12.67;;;8.00;99.90;;;;;;5065058;28;20899;-85
2021/12/27 00:06:10;;;;;;;15.67;13.97;;;8.00;99.90;;;;;;5059606;28;20967;-86
2021/12/27 00:08:40;;;;;;;16.03;12.90;;;8.00;99.90;;;;;;5069108;28;20549;-85
2021/12/27 00:11:07;;;;;;;16.13;14.43;;;8.00;99.90;;;;;;5067953;28;20480;-85
2021/12/27 00:13:34;;;;;;;15.10;12.90;;;8.00;99.90;;;;;;5070948;28;20445;-86
2021/12/27 00:16:01;;;;;;;19.27;14.53;;;8.00;99.90;;;;;;5046173;28;20452;-85
2021/12/27 00:18:27;;;;;;;16.23;14.50;;;8.00;99.90;;;;;;5070769;28;20498;-86
2021/12/27 00:20:55;;;;;;;14.77;13.27;;;8.00;99.90;;;;;;5061036;28;20475;-86
2021/12/27 00:23:22;;;;;;;17.33;13.77;;;8.00;99.90;;;;;;5055369;28;20445;-86
2021/12/27 00:25:50;;;;;;;17.80;16.10;;;8.00;99.90;;;;;;5059898;28;20485;-86
2021/12/27 00:28:17;;;;;;;17.33;15.63;;;8.00;99.90;;;;;;5058974;28;20483;-86
2021/12/27 00:30:43;;;;;;;17.93;16.03;;;8.00;99.90;;;;;;5083066;28;20528;-85
2021/12/27 00:33:10;;;;;;;17.13;14.97;;;8.00;99.90;;;;;;5075104;28;20475;-86
2021/12/27 00:35:37;;;;;;;17.43;15.50;;;8.00;99.90;;;;;;5046472;28;20975;-86
2021/12/27 00:38:04;;;;;;;18.60;15.63;;;8.00;99.90;;;;;;5059734;28;20524;-86
2021/12/27 00:40:31;;;;;;;16.27;13.60;;;8.00;99.90;;;;;;5071756;28;20464;-85
2021/12/27 00:42:59;;;;;;;19.00;15.50;;;8.00;99.90;;;;;;5069171;28;20455;-85
2021/12/27 00:45:26;;;;;;;18.37;14.00;;;8.00;99.90;;;;;;5060050;28;20801;-86
2021/12/27 00:47:54;;;;;;;19.07;15.80;;;7.90;99.90;;;;;;5062576;28;20476;-86
2021/12/27 00:50:21;;;;;;;20.57;16.10;;;8.00;99.90;;;;;;5070947;28;20471;-86
2021/12/27 00:52:49;;;;;;;16.10;13.90;;;8.00;99.90;;;;;;5062671;28;20948;-86
2021/12/27 00:55:16;;;;;;;15.97;14.37;;;8.00;99.90;;;;;;5070520;28;20948;-86
2021/12/27 00:57:43;;;;;;;13.93;12.53;;;8.00;99.90;;;;;;5062332;28;20453;-85
2021/12/27 01:00:14;;;;;;;15.47;13.87;;;8.00;99.90;;;;;;5069433;28;20605;-86
2021/12/27 01:02:41;;;;;;;14.43;13.00;;;8.00;99.90;;;;;;5070146;28;20451;-86
2021/12/27 01:05:09;;;;;;;13.50;12.10;;;8.10;99.90;;;;;;5070961;28;20497;-85
2021/12/27 01:07:36;;;;;;;16.43;13.50;;;8.10;99.90;;;;;;5074740;28;20443;-85
2021/12/27 01:10:18;;;;;;;16.13;14.43;;;8.00;99.90;;;;;;5082951;28;21131;-86
2021/12/27 01:13:01;;;;;;;15.17;12.80;;;8.00;99.90;;;;;;5065984;28;20443;-86
2021/12/27 01:15:47;;;;;;;15.80;13.27;;;8.00;99.90;;;;;;5056939;28;20479;-85
2021/12/27 01:18:16;;;;;;;24.73;15.17;;;8.00;99.90;;;;;;5064428;28;20446;-85
2021/12/27 01:20:43;;;;;;;14.97;13.30;;;8.00;99.90;;;;;;5056729;28;20484;-86
2021/12/27 01:23:11;;;;;;;18.20;14.47;;;8.00;99.90;;;;;;5064348;28;20424;-85
2021/12/27 01:25:37;;;;;;;14.87;13.30;;;8.00;99.90;;;;;;5071123;28;20459;-86
2021/12/27 01:28:06;;;;;;;15.87;14.23;;;8.00;99.90;;;;;;5067319;28;20473;-86
2021/12/27 01:30:38;;;;;;;16.10;12.60;;;7.90;99.90;;;;;;5061940;28;20448;-85
2021/12/27 01:33:06;;;;;;;17.70;13.27;;;7.90;99.90;;;;;;5079271;28;20811;-85
2021/12/27 01:35:34;;;;;;;12.87;11.43;;;7.80;99.90;;;;;;5057250;28;20543;-85
2021/12/27 01:38:01;;;;;;;14.93;12.00;;;7.90;99.90;;;;;;5061139;28;20797;-86
2021/12/27 01:40:29;;;;;;;13.93;11.40;;;8.00;99.90;;;;;;5075684;28;20455;-84
2021/12/27 01:43:08;;;;;;;14.43;12.77;;;8.00;99.90;;;;;;5078526;28;20448;-85
2021/12/27 01:45:39;;;;;;;13.20;10.30;;;8.00;99.90;;;;;;5071359;28;20818;-86
2021/12/27 01:48:07;;;;;;;11.70;10.50;;;8.00;99.90;;;;;;5059516;28;20572;-86
2021/12/27 01:50:36;;;;;;;12.30;9.53;;;8.00;99.90;;;;;;5058989;28;20472;-86
2021/12/27 01:53:03;;;;;;;12.13;10.83;;;8.00;99.90;;;;;;5063137;28;20451;-86
2021/12/27 01:55:30;;;;;;;14.50;10.53;;;8.00;99.90;;;;;;5068260;28;20455;-85
2021/12/27 01:57:57;;;;;;;12.10;10.57;;;8.00;99.90;;;;;;5059215;28;20819;-85
2021/12/27 02:00:24;;;;;;;11.80;10.60;;;8.00;99.90;;;;;;5060632;28;20543;-86
2021/12/27 02:02:53;;;;;;;11.53;10.33;;;8.00;99.90;;;;;;5058079;28;20640;-83
2021/12/27 02:05:20;;;;;;;12.13;9.90;;;8.00;99.90;;;;;;5084883;28;20448;-86
2021/12/27 02:07:47;;;;;;;12.43;10.57;;;8.10;99.90;;;;;;5087033;28;20462;-86
2021/12/27 02:10:14;;;;;;;12.30;10.97;;;8.10;99.90;;;;;;5067665;28;20494;-85
2021/12/27 02:12:43;;;;;;;10.70;9.27;;;8.10;99.90;;;;;;5055801;28;20498;-85
2021/12/27 02:15:11;;;;;;;13.20;10.50;;;8.10;99.90;;;;;;5065960;28;20482;-86
2021/12/27 02:17:39;;;;;;;14.67;10.20;;;8.10;99.90;;;;;;5080234;28;20443;-86
2021/12/27 02:20:09;;;;;;;12.70;11.20;;;8.10;99.90;;;;;;5069740;22;21056;-90
2021/12/27 02:22:39;;;;;;;14.10;9.90;;;8.10;99.90;;;;;;5035960;28;20425;-90
2021/12/27 02:25:08;;;;;;;12.47;10.37;;;8.00;99.90;;;;;;5043102;28;20452;-90
2021/12/27 02:27:36;;;;;;;12.27;9.37;;;8.00;99.90;;;;;;5035126;28;20438;-91
2021/12/27 02:30:05;;;;;;;10.93;9.83;;;8.00;99.90;;;;;;5039814;28;20509;-89
2021/12/27 02:32:32;;;;;;;11.87;10.67;;;8.00;99.90;;;;;;5016237;28;20461;-89
2021/12/27 02:34:58;;;;;;;12.13;10.93;;;8.00;99.90;;;;;;5029161;28;20445;-91
2021/12/27 02:37:26;;;;;;;11.73;10.53;;;8.00;99.90;;;;;;5029162;28;20537;-90
2021/12/27 02:39:53;;;;;;;11.33;10.23;;;8.00;99.90;;;;;;5021498;28;20470;-89
2021/12/27 02:42:20;;;;;;;12.90;10.40;;;8.10;99.90;;;;;;5018276;28;20457;-91
2021/12/27 02:44:47;;;;;;;11.03;9.67;;;8.10;99.90;;;;;;5015908;28;20453;-90
2021/12/27 02:47:16;;;;;;;12.50;9.60;;;8.10;99.90;;;;;;5015967;28;20939;-90
2021/12/27 02:49:43;;;;;;;11.10;9.67;;;8.00;99.90;;;;;;5016802;28;20482;-90
2021/12/27 02:52:11;;;;;;;12.10;10.97;;;8.00;99.90;;;;;;5020360;28;20443;-91
2021/12/27 02:54:43;;;;;;;11.60;10.40;;;8.00;99.90;;;;;;5024723;28;21009;-90
2021/12/27 02:57:11;;;;;;;10.70;9.70;;;8.00;99.90;;;;;;5020276;28;20423;-90
2021/12/27 02:59:37;;;;;;;11.60;10.50;;;8.00;99.90;;;;;;5019697;28;20476;-90
2021/12/27 03:02:05;;;;;;;10.37;9.30;;;8.00;99.90;;;;;;5020265;28;20458;-90
2021/12/27 03:04:36;;;;;;;13.37;10.80;;;8.00;99.90;;;;;;5019869;28;20461;-92
2021/12/27 03:07:04;;;;;;;13.07;10.83;;;7.90;99.90;;;;;;5019639;28;20461;-90
2021/12/27 03:09:31;;;;;;;12.60;10.37;;;7.90;99.90;;;;;;5019680;28;20516;-90
2021/12/27 03:11:59;;;;;;;12.40;11.20;;;7.90;99.90;;;;;;5020362;28;20434;-89
2021/12/27 03:14:25;;;;;;;13.20;11.70;;;7.90;99.90;;;;;;5035795;28;20430;-92
2021/12/27 03:16:52;;;;;;;13.83;11.63;;;7.90;99.90;;;;;;5034650;28;20438;-92
2021/12/27 03:19:19;;;;;;;12.60;11.30;;;7.90;99.90;;;;;;5040078;28;20549;-90
2021/12/27 03:21:46;;;;;;;11.97;10.77;;;7.90;99.90;;;;;;5026344;28;20423;-91
2021/12/27 03:24:13;;;;;;;14.90;12.23;;;7.90;99.90;;;;;;5021585;28;20453;-91
2021/12/27 03:26:39;;;;;;;13.70;12.13;;;7.80;99.90;;;;;;5020917;28;20426;-90
2021/12/27 03:29:08;;;;;;;13.00;11.67;;;7.90;99.90;;;;;;5021268;28;20478;-91
2021/12/27 03:31:37;;;;;;;12.90;11.53;;;7.80;99.90;;;;;;5021612;28;20474;-90
2021/12/27 03:34:04;;;;;;;13.20;11.90;;;7.80;99.90;;;;;;5029440;28;20466;-90
2021/12/27 03:36:37;;;;;;;13.93;11.83;;;7.80;99.90;;;;;;5038433;28;20460;-91
2021/12/27 03:39:06;;;;;;;12.33;11.03;;;7.80;99.90;;;;;;5035208;28;20457;-91
2021/12/27 03:41:33;;;;;;;11.60;10.50;;;7.80;99.90;;;;;;5022124;28;20462;-92
2021/12/27 03:44:00;;;;;;;11.00;9.90;;;7.80;99.90;;;;;;5023633;28;20465;-92
2021/12/27 03:46:28;;;;;;;12.40;11.20;;;7.70;99.90;;;;;;5030717;28;20517;-91
2021/12/27 03:48:55;;;;;;;10.77;9.60;;;7.80;99.90;;;;;;5032079;28;20557;-91
2021/12/27 03:51:23;;;;;;;11.50;10.47;;;7.80;99.90;;;;;;5032061;28;20473;-91
2021/12/27 03:53:50;;;;;;;14.30;11.27;;;7.80;99.90;;;;;;5024358;28;20430;-92
2021/12/27 03:56:17;;;;;;;11.27;9.93;;;7.80;99.90;;;;;;5025243;28;20449;-91
2021/12/27 03:58:53;;;;;;;10.63;9.27;;;7.80;99.90;;;;;;5023594;28;20951;-91
2021/12/27 04:01:21;;;;;;;10.60;9.50;;;7.80;99.90;;;;;;5019684;28;20966;-92
2021/12/27 04:03:52;;;;;;;11.57;10.40;;;7.90;99.90;;;;;;5019671;28;20462;-91
2021/12/27 04:06:21;;;;;;;10.20;9.20;;;7.90;99.90;;;;;;5018814;28;20434;-91
2021/12/27 04:08:48;;;;;;;11.83;9.93;;;7.90;99.90;;;;;;5020003;28;20458;-92
2021/12/27 04:11:15;;;;;;;10.80;9.60;;;7.90;99.90;;;;;;5019119;28;20481;-91
2021/12/27 04:13:43;;;;;;;11.77;9.23;;;7.90;99.90;;;;;;5019668;28;20454;-92
2021/12/27 04:16:10;;;;;;;11.57;10.47;;;7.90;99.90;;;;;;5019325;28;20450;-91
2021/12/27 04:18:36;;;;;;;10.73;9.83;;;7.90;99.90;;;;;;5019373;28;20446;-91
2021/12/27 04:21:05;;;;;;;11.33;9.50;;;7.90;99.90;;;;;;5018290;28;20499;-91
2021/12/27 04:23:32;;;;;;;11.00;9.90;;;7.90;99.90;;;;;;5022315;28;20525;-91
2021/12/27 04:25:59;;;;;;;12.37;11.07;;;7.90;99.90;;;;;;5031981;28;20452;-91
2021/12/27 04:28:26;;;;;;;11.00;9.60;;;7.90;99.90;;;;;;5017496;28;20430;-92
2021/12/27 04:30:52;;;;;;;11.10;10.17;;;7.90;99.90;;;;;;5016014;28;20478;-92
2021/12/27 04:33:19;;;;;;;11.60;10.00;;;7.90;99.90;;;;;;5017600;28;20446;-92
2021/12/27 04:35:46;;;;;;;10.13;9.13;;;7.90;99.90;;;;;;5016448;28;20454;-91
2021/12/27 04:38:15;;;;;;;11.00;9.87;;;7.90;99.90;;;;;;5019147;28;20435;-92
2021/12/27 04:40:45;;;;;;;12.73;11.23;;;7.90;99.90;;;;;;5032743;28;20553;-92
2021/12/27 04:43:14;;;;;;;11.67;9.37;;;7.90;99.90;;;;;;5018319;28;20461;-91
2021/12/27 04:45:42;;;;;;;11.40;10.23;;;7.90;99.90;;;;;;5016873;28;20430;-92
2021/12/27 04:48:09;;;;;;;11.63;9.70;;;7.90;99.90;;;;;;5016783;28;20446;-92
2021/12/27 04:50:58;;;;;;;10.53;9.43;;;7.90;99.90;;;;;;5021112;28;20493;-91
2021/12/27 04:53:27;;;;;;;10.63;9.63;;;7.90;99.90;;;;;;5039038;28;20417;-91
2021/12/27 04:55:54;;;;;;;11.43;10.10;;;7.80;99.90;;;;;;5026810;28;20456;-91
2021/12/27 04:58:23;;;;;;;11.07;10.00;;;7.80;99.90;;;;;;5037336;28;20438;-91
2021/12/27 05:00:51;;;;;;;11.80;10.27;;;7.90;99.90;;;;;;5023649;28;20474;-91
2021/12/27 05:03:17;;;;;;;11.37;9.53;;;7.90;99.90;;;;;;5020907;28;20464;-91
2021/12/27 05:05:46;;;;;;;11.10;9.97;;;7.90;99.90;;;;;;5020091;28;20888;-92
2021/12/27 05:08:14;;;;;;;10.80;9.70;;;7.90;99.90;;;;;;5019439;28;20450;-90
2021/12/27 05:10:42;;;;;;;10.90;9.80;;;7.90;99.90;;;;;;5019090;28;20481;-91
2021/12/27 05:13:09;;;;;;;9.00;8.03;;;7.90;99.90;;;;;;5021772;28;20454;-91
2021/12/27 05:15:36;;;;;;;9.80;8.80;;;7.90;99.90;;;;;;5027697;28;20461;-92
2021/12/27 05:18:03;;;;;;;10.60;9.50;;;7.90;99.90;;;;;;5018077;28;20465;-91
2021/12/27 05:20:30;;;;;;;9.80;8.90;;;7.90;99.90;;;;;;5017732;28;20479;-92
2021/12/27 05:22:56;;;;;;;9.50;8.70;;;8.00;99.90;;;;;;5017393;28;20460;-92
2021/12/27 05:25:23;;;;;;;9.20;8.33;;;8.00;99.90;;;;;;5017762;28;20459;-92
2021/12/27 05:27:51;;;;;;;9.80;8.90;;;8.00;99.90;;;;;;5021604;28;20469;-92
2021/12/27 05:30:19;;;;;;;10.80;9.57;;;8.00;99.90;;;;;;5023056;28;20462;-92
2021/12/27 05:32:46;;;;;;;8.37;7.63;;;8.00;99.90;;;;;;5037493;28;20490;-92
2021/12/27 05:35:14;;;;;;;11.07;9.97;;;8.00;99.90;;;;;;5024936;28;20450;-92
2021/12/27 05:37:41;;;;;;;10.47;9.37;;;8.00;99.90;;;;;;5018265;28;20431;-92
2021/12/27 05:40:12;;;;;;;14.13;10.37;;;8.00;99.90;;;;;;5022415;28;20466;-92
2021/12/27 05:42:39;;;;;;;11.27;8.73;;;8.00;99.90;;;;;;5023027;28;20415;-92
2021/12/27 05:45:09;;;;;;;11.00;8.97;;;8.00;99.90;;;;;;5021406;28;20446;-91
2021/12/27 05:47:37;;;;;;;10.20;9.07;;;8.00;99.90;;;;;;4999026;28;20443;-92
2021/12/27 05:50:07;;;;;;;10.37;9.43;;;8.10;99.90;;;;;;5015379;28;20486;-92
2021/12/27 05:52:34;;;;;;;10.97;9.87;;;8.00;99.90;;;;;;5019066;28;20451;-92
2021/12/27 05:55:01;;;;;;;9.90;9.00;;;8.10;99.90;;;;;;5017271;28;20450;-92
2021/12/27 05:57:28;;;;;;;10.53;9.43;;;8.10;99.90;;;;;;5017856;28;20453;-91
2021/12/27 05:59:55;;;;;;;9.67;8.77;;;8.10;99.90;;;;;;5022283;28;20466;-91
2021/12/27 06:02:23;;;;;;;10.10;9.07;;;8.10;99.90;;;;;;5019128;28;20441;-92
2021/12/27 06:04:51;;;;;;;9.00;8.20;;;8.10;99.90;;;;;;5016348;28;20973;-91
2021/12/27 06:07:18;;;;;;;9.30;8.43;;;8.10;99.90;;;;;;5021191;28;20462;-91
2021/12/27 06:09:45;;;;;;;11.53;9.47;;;8.10;99.90;;;;;;5026946;28;20478;-91
2021/12/27 06:12:12;;;;;;;10.53;9.53;;;8.10;99.90;;;;;;5018649;28;20439;-91
2021/12/27 06:14:39;;;;;;;10.60;9.30;;;8.10;99.90;;;;;;5027538;28;20848;-91
2021/12/27 06:17:06;;;;;;;10.53;9.43;;;8.10;99.90;;;;;;5023368;28;20496;-91
2021/12/27 06:19:34;;;;;;;10.73;9.70;;;8.00;99.90;;;;;;5026639;28;20534;-91
2021/12/27 06:22:02;;;;;;;13.93;11.30;;;7.90;99.90;;;;;;5020664;28;20458;-91
2021/12/27 06:24:29;;;;;;;11.27;10.07;;;7.80;99.90;;;;;;5023316;28;20449;-92
2021/12/27 06:26:56;;;;;;;11.30;9.77;;;7.80;99.90;;;;;;5025770;28;20434;-91
2021/12/27 06:29:23;;;;;;;10.57;9.47;;;7.70;99.90;;;;;;5034750;28;20448;-91
2021/12/27 06:31:50;;;;;;;10.53;9.53;;;7.70;99.90;;;;;;5058535;28;20481;-92
2021/12/27 06:34:17;;;;;;;10.27;9.37;;;7.60;99.90;;;;;;5057574;28;20444;-92
2021/12/27 06:36:45;;;;;;;9.97;9.07;;;7.60;99.90;;;;;;5051907;28;20507;-92
2021/12/27 06:39:12;;;;;;;11.40;10.20;;;7.40;99.90;;;;;;5038596;28;20887;-92
2021/12/27 06:41:39;;;;;;;11.00;9.90;;;7.40;99.90;;;;;;5032472;28;20446;-92
2021/12/27 06:44:06;;;;;;;11.87;10.67;;;7.40;99.90;;;;;;5030556;28;20438;-91
2021/12/27 06:46:33;;;;;;;13.00;10.23;;;7.30;99.90;;;;;;5032763;28;20460;-91
2021/12/27 06:49:00;;;;;;;13.47;11.90;;;7.30;99.90;;;;;;5024044;28;20442;-91
2021/12/27 06:51:27;;;;;;;13.40;10.70;;;7.20;99.90;;;;;;5027783;28;20573;-92
2021/12/27 06:53:55;;;;;;;12.00;10.80;;;7.20;99.90;;;;;;5031149;28;20446;-92
2021/12/27 06:56:22;;;;;;;13.07;11.77;;;7.20;99.90;;;;;;5029960;28;20445;-92
2021/12/27 06:58:49;;;;;;;12.00;10.80;;;7.10;99.90;;;;;;5023417;28;20950;-93
2021/12/27 07:01:16;;;;;;;11.83;10.73;;;7.20;99.90;;;;;;5024514;28;20478;-92
2021/12/27 07:03:45;;;;;;;11.47;10.27;;;7.10;99.90;;;;;;5026363;28;20442;-92
2021/12/27 07:06:12;;;;;;;10.63;9.53;;;7.10;99.90;;;;;;5024286;28;20430;-92
2021/12/27 07:08:38;;;;;;;13.73;12.07;;;7.10;99.90;;;;;;5022664;28;20454;-93
2021/12/27 07:11:07;;;;;;;12.97;10.00;;;7.10;99.90;;;;;;5032787;28;20488;-92
2021/12/27 07:13:34;;;;;;;13.10;11.17;;;7.10;99.90;;;;;;5023432;28;20449;-92
2021/12/27 07:16:01;;;;;;;11.57;10.37;;;7.00;99.90;;;;;;5025597;28;20476;-92
2021/12/27 07:18:28;;;;;;;12.10;10.17;;;7.00;99.90;;;;;;5024438;28;20458;-92
2021/12/27 07:20:55;;;;;;;12.60;11.40;;;7.00;99.90;;;;;;5029972;28;20477;-92
2021/12/27 07:23:21;;;;;;;13.20;11.83;;;7.00;99.90;;;;;;5028570;28;20453;-92
2021/12/27 07:25:49;;;;;;;11.77;10.37;;;7.00;99.90;;;;;;5024285;28;20454;-92
2021/12/27 07:28:17;;;;;;;11.93;10.73;;;7.00;99.90;;;;;;5041367;28;20449;-92
2021/12/27 07:30:44;;;;;;;14.10;11.47;;;7.00;99.90;;;;;;5037512;28;20560;-92
2021/12/27 07:33:11;;;;;;;11.63;10.50;;;7.00;99.90;;;;;;5026028;28;20454;-92
2021/12/27 07:36:10;;;;;;;12.10;10.80;;;7.10;99.90;;;;;;5024220;28;20458;-93
2021/12/27 07:38:40;;;;;;;10.70;9.70;;;7.20;99.90;;;;;;5023026;28;20457;-92
2021/12/27 07:41:07;;;;;;;11.43;10.03;;;7.20;99.90;;;;;;5030084;28;20569;-92
2021/12/27 07:43:36;;;;;;;12.87;10.50;;;7.20;99.90;;;;;;5027946;28;20513;-93
2021/12/27 07:46:03;;;;;;;11.53;10.33;;;7.30;99.90;;;;;;5020449;28;20451;-92
2021/12/27 07:48:30;;;;;;;12.10;10.80;;;7.30;99.90;;;;;;5021804;28;20438;-93
2021/12/27 07:50:58;;;;;;;12.40;11.20;;;7.30;99.90;;;;;;5020582;28;20564;-93
2021/12/27 07:53:25;;;;;;;12.60;10.70;;;7.30;99.90;;;;;;5013350;28;20466;-93
2021/12/27 08:12:27;;;;;;;10.60;9.67;;;7.70;99.90;;;;;;4989259;28;20491;-93
2021/12/27 08:15:46;;;;;;;8.80;8.00;;;7.70;99.90;;;;;;4999088;28;20638;-93
2021/12/27 08:18:46;;;;;;;11.10;9.40;;;7.60;99.90;;;;;;4996431;28;20451;-92
2021/12/27 08:21:16;;;;;;;12.43;8.80;;;7.60;99.90;;;;;;5033007;28;20453;-92
2021/12/27 08:23:43;;;;;;;10.50;9.57;;;7.60;99.90;;;;;;5044194;28;20445;-91
2021/12/27 08:26:10;;;;;;;10.33;9.33;;;7.70;99.90;;;;;;5048030;28;20636;-91
2021/12/27 08:28:39;;;;;;;10.80;9.40;;;7.70;99.90;;;;;;5046037;28;20505;-92
2021/12/27 08:31:33;;;;;;;10.80;9.00;;;7.70;99.90;;;;;;5044320;28;20506;-93
2021/12/27 08:34:00;;;;;;;10.60;9.60;;;7.70;99.90;;;;;;5046297;28;20437;-91
2021/12/27 08:36:28;;;;;;;11.20;10.03;;;7.70;99.90;;;;;;5025496;28;20477;-93
2021/12/27 08:38:55;;;;;;;9.60;8.50;;;7.80;99.90;;;;;;5040924;28;20430;-92
2021/12/27 08:41:27;;;;;;;10.33;9.23;;;7.70;99.90;;;;;;5046958;28;20902;-92
2021/12/27 08:44:04;;;;;;;10.03;8.90;;;7.70;99.90;;;;;;5040809;28;20437;-92
2021/12/27 08:49:17;;;;;;;10.47;9.37;;;8.00;99.90;;;;;;5025850;28;20453;-92
2021/12/27 08:51:44;;;;;;;9.23;8.33;;;8.10;99.90;;;;;;5036388;28;20641;-92
2021/12/27 08:54:11;;;;;;;10.10;9.20;;;8.50;99.90;;;;;;5045434;28;20438;-92
2021/12/27 08:56:39;;;;;;;8.93;8.03;;;8.90;99.90;;;;;;5033109;28;20446;-92
2021/12/27 09:04:54;;;;;;;10.87;9.63;;;9.90;99.90;;;;;;5020543;28;20451;-92
2021/12/27 09:07:22;;;;;;;8.47;7.60;;;10.00;99.90;;;;;;5008386;28;20463;-93
2021/12/27 09:09:49;;;;;;;10.20;9.20;;;9.70;99.90;;;;;;5020479;28;20619;-93
2021/12/27 09:12:22;;;;;;;8.00;7.20;;;9.70;99.90;;;;;;5022968;28;20534;-93
2021/12/27 09:14:50;;;;;;;9.77;8.10;;;9.80;99.90;;;;;;5019370;28;20442;-93
2021/12/27 09:23:20;;;;;;;6.93;6.23;;;9.40;99.90;;;;;;5138411;22;20494;-94
2021/12/27 09:38:46;;;;;;;8.60;7.80;;;9.70;99.90;;;;;;5104265;28;20465;-92
2021/12/27 09:43:47;;;;;;;6.37;5.70;;;9.80;99.90;;;;;;5065883;28;20467;-91
2021/12/27 09:46:16;;;;;;;6.53;5.93;;;9.80;99.90;;;;;;5067925;28;20501;-92
2021/12/27 09:48:44;;;;;;;6.90;6.20;;;9.90;99.90;;;;;;5071573;28;20432;-92
2021/12/27 09:51:11;;;;;;;6.00;5.50;;;10.10;99.90;;;;;;5083165;28;20471;-92
2021/12/27 09:53:39;;;;;;;6.70;6.03;;;10.20;99.90;;;;;;5089420;28;20541;-93
2021/12/27 10:02:47;;;;;;;6.80;6.10;;;11.50;99.90;;;;;;5697682;22;20995;-93
2021/12/27 10:05:35;;;;;;;5.60;4.80;;;11.90;99.90;;;;;;5069035;28;20822;-94
2021/12/27 10:08:22;;;;;;;4.93;4.53;;;12.30;99.90;;;;;;5061125;28;20468;-92
2021/12/27 10:10:49;;;;;;;5.77;5.27;;;13.00;99.90;;;;;;5059567;28;21086;-92
2021/12/27 10:13:16;;;;;;;5.90;5.40;;;13.10;99.90;;;;;;5063090;28;20443;-93
2021/12/27 10:15:45;;;;;;;5.63;5.13;;;12.80;99.90;;;;;;5055422;28;20512;-92
2021/12/27 10:18:28;;;;;;;5.00;4.60;;;12.50;99.90;;;;;;5038928;28;20455;-92
2021/12/27 10:20:59;;;;;;;5.00;4.50;;;13.10;99.90;;;;;;5188686;23;20520;-92
2021/12/27 10:23:28;;;;;;;4.33;4.03;;;14.30;99.90;;;;;;5091780;28;20460;-92
2021/12/27 10:25:56;;;;;;;5.00;4.60;;;15.30;99.90;;;;;;5082656;28;20487;-92
2021/12/27 10:28:27;;;;;;;4.93;4.50;;;16.20;99.30;;;;;;5089588;28;20434;-92
2021/12/27 10:31:03;;;;;;;6.43;4.60;;;17.20;97.50;;;;;;5096524;28;20498;-92
2021/12/27 10:33:33;;;;;;;5.03;4.63;;;18.10;95.40;;;;;;5104478;28;20458;-92
2021/12/27 10:36:00;;;;;;;4.93;4.50;;;18.40;93.40;;;;;;5113884;28;20514;-92
2021/12/27 10:38:32;;;;;;;4.83;4.10;;;18.40;92.50;;;;;;5115275;28;20546;-92
2021/12/27 10:41:01;;;;;;;4.40;4.00;;;18.50;92.00;;;;;;5103562;28;20456;-92
2021/12/27 10:43:38;;;;;;;4.83;4.43;;;18.30;91.90;;;;;;5113581;28;20482;-93
2021/12/27 10:46:06;;;;;;;5.57;5.07;;;18.00;91.90;;;;;;5101533;28;20536;-92
2021/12/27 10:48:36;;;;;;;4.70;4.30;;;18.30;92.20;;;;;;5106068;28;20840;-93
2021/12/27 10:54:27;;;;;;;5.10;4.70;;;19.20;90.50;;;;;;5103223;28;20462;-81
2021/12/27 10:56:54;;;;;;;5.30;4.90;;;19.70;88.50;;;;;;5099839;28;20439;-80
2021/12/27 10:59:22;;;;;;;5.33;4.30;;;19.50;87.80;;;;;;5104440;28;20452;-81
2021/12/27 11:01:50;;;;;;;4.93;4.40;;;19.40;87.10;;;;;;5107364;28;20437;-81
2021/12/27 11:04:20;;;;;;;5.30;4.90;;;19.50;87.90;;;;;;5097376;28;20460;-81
2021/12/27 11:06:49;;;;;;;4.80;4.43;;;19.70;87.70;;;;;;5096689;28;20953;-79
2021/12/27 11:09:17;;;;;;;5.43;4.97;;;19.60;85.50;;;;;;5094043;28;20869;-81
2021/12/27 11:11:44;;;;;;;4.50;3.87;;;19.30;86.50;;;;;;5093746;28;20470;-81
2021/12/27 11:14:11;;;;;;;5.27;4.47;;;18.90;86.00;;;;;;5104045;28;20450;-88
2021/12/27 11:16:38;;;;;;;5.90;4.70;;;18.90;87.00;;;;;;5121504;28;20427;-93
2021/12/27 11:19:11;;;;;;;4.73;4.33;;;19.80;86.40;;;;;;5107000;28;20484;-90
2021/12/27 11:24:50;;;;;;;4.80;4.40;;;20.30;83.80;;;;;;5085703;28;20534;-87
2021/12/27 11:27:17;;;;;;;4.70;4.20;;;19.80;82.40;;;;;;5093782;28;20482;-88
2021/12/27 11:30:05;;;;;;;4.60;4.20;;;18.30;85.30;;;;;;5096086;28;20465;-88
2021/12/27 11:32:32;;;;;;;4.77;4.40;;;16.80;90.10;;;;;;5097400;28;20467;-86
2021/12/27 11:35:02;;;;;;;5.47;4.97;;;15.70;91.90;;;;;;5097481;28;20442;-86
2021/12/27 11:37:38;;;;;;;5.17;4.67;;;15.10;93.40;;;;;;5097647;28;20458;-87
2021/12/27 11:40:08;;;;;;;5.00;4.60;;;14.50;94.50;;;;;;5097296;28;20461;-88
2021/12/27 11:42:54;;;;;;;7.40;6.70;;;14.50;95.60;;;;;;5096861;28;20470;-87
2021/12/27 11:45:51;;;;;;;6.10;4.90;;;14.40;95.90;;;;;;5105304;28;20435;-86
2021/12/27 11:48:21;;;;;;;4.80;4.40;;;14.20;96.40;;;;;;5074629;28;20447;-87
2021/12/27 11:51:19;;;;;;;5.33;4.83;;;14.20;96.80;;;;;;5105550;28;20465;-85
2021/12/27 11:53:53;;;;;;;5.10;4.53;;;14.40;96.70;;;;;;5107734;28;20442;-86
2021/12/27 11:56:46;;;;;;;6.30;4.40;;;14.20;96.50;;;;;;5099966;28;20449;-86
2021/12/27 11:59:41;;;;;;;4.73;4.33;;;14.00;97.20;;;;;;5096176;28;20495;-87
2021/12/27 12:02:25;;;;;;;6.10;4.20;;;13.60;97.40;;;;;;5095468;28;20455;-86
2021/12/27 12:04:54;;;;;;;5.03;4.63;;;13.40;98.30;;;;;;5092814;28;20443;-86
2021/12/27 12:07:54;;;;;;;5.13;4.73;;;13.30;98.70;;;;;;5100527;28;20443;-88
2021/12/27 12:10:36;;;;;;;5.20;4.73;;;13.30;98.70;;;;;;5106526;28;20465;-86
2021/12/27 12:13:28;;;;;;;4.67;3.90;;;13.20;98.90;;;;;;5096452;28;20480;-86
2021/12/27 12:16:10;;;;;;;5.90;4.00;;;13.20;99.10;;;;;;5094621;22;20856;-84
2021/12/27 12:18:41;;;;;;;5.40;4.70;;;13.10;99.70;;;;;;5057209;28;20445;-85
2021/12/27 12:21:23;;;;;;;7.63;5.43;;;12.80;99.90;;;;;;5072427;28;20450;-85
2021/12/27 12:23:57;;;;;;;5.13;4.73;;;12.60;99.90;;;;;;5055008;28;20802;-85
2021/12/27 12:26:26;;;;;;;6.50;5.30;;;12.50;99.90;;;;;;5037451;28;20437;-85
2021/12/27 12:29:00;;;;;;;5.30;4.70;;;12.30;99.90;;;;;;5034034;28;20433;-84
2021/12/27 12:31:30;;;;;;;5.63;5.23;;;12.30;99.90;;;;;;5063508;28;20472;-84
2021/12/27 12:34:08;;;;;;;4.47;4.07;;;12.20;99.90;;;;;;5064092;28;20440;-84
2021/12/27 12:36:48;;;;;;;5.27;4.77;;;12.30;99.90;;;;;;5060803;28;20483;-84
2021/12/27 12:52:50;;;;;;;5.13;4.63;;;12.20;99.90;;;;;;4894008;29;20497;-86
2021/12/27 12:55:21;;;;;;;11.03;5.13;;;12.10;99.90;;;;;;4939391;29;20557;-84
2021/12/27 12:57:48;;;;;;;4.77;4.37;;;12.10;99.90;;;;;;5036197;28;20500;-85
2021/12/27 13:00:20;;;;;;;5.37;4.87;;;12.10;99.90;;;;;;5040013;28;20503;-84
2021/12/27 13:02:48;;;;;;;7.93;4.47;;;12.20;99.90;;;;;;5038742;28;20447;-84
2021/12/27 13:05:18;;;;;;;5.77;4.43;;;12.30;99.90;;;;;;5040267;28;20512;-91
2021/12/27 13:07:47;;;;;;;6.17;4.83;;;12.10;99.90;;;;;;5042597;28;20692;-90
2021/12/27 13:10:23;;;;;;;5.50;4.30;;;12.00;99.90;;;;;;5045369;28;20441;-90
2021/12/27 13:12:53;;;;;;;4.63;4.23;;;11.90;99.90;;;;;;5039171;28;20479;-92
2021/12/27 13:15:22;;;;;;;4.60;4.20;;;11.90;99.90;;;;;;5034782;28;20502;-90
2021/12/27 13:18:03;;;;;;;4.93;4.43;;;11.90;99.90;;;;;;5037197;28;20476;-91
2021/12/27 13:20:33;;;;;;;4.83;4.17;;;11.90;99.90;;;;;;5032635;28;20441;-91
2021/12/27 13:23:00;;;;;;;4.20;3.70;;;12.00;99.90;;;;;;5034528;28;20863;-92
2021/12/27 13:25:39;;;;;;;5.20;4.70;;;11.90;99.90;;;;;;5034956;28;20513;-91
2021/12/27 13:28:16;;;;;;;5.60;5.07;;;11.80;99.90;;;;;;5034304;28;20469;-91
2021/12/27 13:31:01;;;;;;;4.53;4.13;;;11.80;99.90;;;;;;5037425;28;20883;-91
2021/12/27 13:33:39;;;;;;;4.80;4.33;;;11.80;99.90;;;;;;5015274;28;20984;-91
2021/12/27 13:36:09;;;;;;;5.30;4.80;;;11.70;99.90;;;;;;5018973;28;20473;-90
2021/12/27 13:38:43;;;;;;;5.60;4.80;;;11.60;99.90;;;;;;5035796;28;20819;-90
2021/12/27 13:41:12;;;;;;;5.20;4.70;;;11.50;99.90;;;;;;5042557;28;20434;-92
2021/12/27 13:43:51;;;;;;;6.53;5.03;;;11.40;99.90;;;;;;5046280;28;20472;-92
2021/12/27 13:46:21;;;;;;;5.53;4.40;;;11.40;99.90;;;;;;5036180;28;20525;-91
2021/12/27 13:48:53;;;;;;;6.37;4.97;;;11.50;99.90;;;;;;5040490;28;20512;-89
2021/12/27 13:51:22;;;;;;;5.40;4.43;;;11.50;99.90;;;;;;5016458;28;20440;-92
2021/12/27 13:53:57;;;;;;;5.63;5.13;;;11.50;99.90;;;;;;5027795;28;20451;-91
2021/12/27 13:56:28;;;;;;;6.40;4.47;;;11.50;99.90;;;;;;5041273;28;21071;-89
2021/12/27 14:12:24;;;;;;;6.43;5.83;;;11.40;99.90;;;;;;4989002;28;20482;-94
2021/12/27 14:19:04;;;;;;;8.03;6.67;;;11.40;99.90;;;;;;4986997;28;20436;-93
2021/12/27 14:22:31;;;;;;;7.50;6.67;;;11.30;99.90;;;;;;5017121;28;20521;-92
2021/12/27 14:50:05;;;;;;;7.27;5.00;;;11.10;99.90;;;;;;5146702;27;20531;-91
2021/12/27 14:52:40;;;;;;;6.77;6.17;;;11.00;99.90;;;;;;5139312;28;20855;-91
2021/12/27 14:55:07;;;;;;;7.33;6.63;;;11.00;99.90;;;;;;5136615;28;20489;-92